Nearby METAR Reports

 

KORH - Worcester, Massachusetts, USA
Distance from station: NW 4mi, 7km
Updated: Sat, 27-May-2017 10:54am EDT
Few Clouds
Few Clouds
 Wind from ENE
Wind: ENE 7 mph , 11 km/h
Temperature: 59°F , 15°C
Dew Point: 45°F , 7°C
Humidity: 59%
Barometer: 29.87 inHg , 1011.5 hPa
Clouds: Few Clouds
Visibility: 10 miles , 16 km
Cloud details: Few Clouds 2800 ft
2017/05/27 14:54 KORH 271454Z 07006KT 10SM FEW028 15/07 A2987 RMK AO2 SLP115 T01500072 51004
KBOS - Boston, Massachusetts, USA
Distance from station: ENE 42mi, 68km
Updated: Sat, 27-May-2017 10:54am EDT
Overcast
Overcast
 Wind from SE
Wind: SE 10 mph , 17 km/h
Temperature: 59°F , 15°C
Dew Point: 52°F , 11°C
Humidity: 77%
Barometer: 29.87 inHg , 1011.5 hPa
Clouds: Overcast
Visibility: 10 miles , 16 km
Cloud details: Mostly cloudy 2900 ft
Overcast 3700 ft
2017/05/27 14:54 KBOS 271454Z 14009KT 10SM BKN029 OVC037 15/11 A2987 RMK AO2 SLP113 T01500111 53010
 
KCQX - Chatham, Massachusetts, USA
Distance from station: SE 102mi, 164km
Updated: Sat, 27-May-2017 10:52am EDT
Overcast
Overcast
 Wind from WNW
Wind: WNW 6 mph , 9 km/h
Temperature: 57°F , 14°C
Dew Point: 52°F , 11°C
Humidity: 82%
Barometer: 29.86 inHg , 1011.2 hPa
Clouds: Overcast
Visibility: 10 miles , 16 km
Cloud details: Mostly cloudy 1900 ft
Mostly cloudy 2400 ft
Overcast 3700 ft
2017/05/27 14:52 KCQX 271452Z AUTO 29005KT 10SM BKN019 BKN024 OVC037 14/11 A2986 RMK AO2 SLP114 T01440106 53010
KMVY - Marthas Vineyard, Massachusetts, USA
Distance from station: SE 84mi, 135km
Updated: Sat, 27-May-2017 11:41am EDT
Overcast
Overcast
 
Temperature: 61°F , 16°C
Dew Point: 48°F , 9°C
Humidity: 63%
Barometer: 29.86 inHg , 1011.2 hPa
Clouds: Overcast
Visibility: 10 miles , 16 km
Cloud details: Mostly cloudy 2600 ft
Overcast 3900 ft
2017/05/27 15:41 KMVY 271541Z 10SM BKN026 OVC039 16/09 A2986 RMK AO2 T01610094
 
KPVC - Provincetown, Massachusetts, USA
Distance from station: NNW 85mi, 136km
Updated: Sat, 27-May-2017 10:56am EDT
Overcast
Overcast
 Wind from NW
Wind: NW 7 mph , 11 km/h
Temperature: 55°F , 13°C
Dew Point: 52°F , 11°C
Humidity: 88%
Barometer: 29.87 inHg , 1011.5 hPa
Clouds: Overcast
Visibility: 10 miles , 16 km
Cloud details: Mostly cloudy 2600 ft
Overcast 3100 ft
2017/05/27 14:56 KPVC 271456Z AUTO 32006KT 10SM BKN026 OVC031 13/11 A2987 RMK AO2 SLP116 T01280111 51014
KAQW - Savoy, Massachusetts, USA
Distance from station: NNW 66mi, 106km
Updated: Sat, 27-May-2017 11:32am EDT
Partly cloudy
Partly cloudy
 Wind from varies
Wind: varies 3 mph , 6 km/h
Temperature: 61°F , 16°C
Dew Point: 50°F , 10°C
Humidity: 68%
Barometer: 29.89 inHg , 1012.2 hPa
Clouds: Partly cloudy
Visibility: 10 miles , 16 km
Cloud details: Partly cloudy 2500 ft
Partly cloudy 3100 ft
2017/05/27 15:32 KAQW 271532Z AUTO VRB03KT 10SM SCT025 SCT031 16/10 A2989 RMK AO2 T01560100
 
KIZG - Fryeburg, Maine, USA
Distance from station: NNE 133mi, 214km
Updated: Sat, 27-May-2017 10:54am EDT
Clear
Clear
 Wind from varies
Wind: varies 5 mph , 7 km/h
Temperature: 63°F , 17°C
Dew Point: 46°F , 8°C
Humidity: 56%
Barometer: 29.85 inHg , 1010.8 hPa
Clouds: Clear
Visibility: 10 miles , 16 km
2017/05/27 14:54 KIZG 271454Z AUTO VRB04KT 10SM CLR 17/08 A2985 RMK AO2 SLP108 T01720083 52002
KMWN - Mt Washington, New Hampshire, USA
Distance from station: NNE 146mi, 234km
Updated: Sat, 27-May-2017 10:47am EDT
Fog, Overcast
Fog, Overcast
 Wind from N
Wind: N 23 mph , 37 km/h, Gust: 33 mph , 54 km/h
Temperature: 37°F , 3°C
Wind Chill: 26°F , -3°C
Dew Point: 37°F , 3°C
Humidity: 100%
Summary: Fog
Clouds: Overcast
Visibility: 3/16 mile , 5 km
Cloud details: Overcast 300 ft
2017/05/27 14:47 KMWN 271447Z 01020G29KT 3/16SM FG VV003 03/03 RMK FG INTMT
 
KBML - Berlin, New Hampshire, USA
Distance from station: NNE 160mi, 257km
Updated: Sat, 27-May-2017 10:52am EDT
Mostly cloudy
Mostly cloudy
 Wind from W
Wind: W 6 mph , 9 km/h
Temperature: 63°F , 17°C
Dew Point: 45°F , 7°C
Humidity: 52%
Barometer: 29.86 inHg , 1011.2 hPa
Clouds: Mostly cloudy
Visibility: 10 miles , 16 km
Cloud details: Mostly cloudy 3300 ft
2017/05/27 14:52 KBML 271452Z AUTO 28005KT 10SM BKN033 17/07 A2986 RMK AO2 SLP114 T01720067 58002